createdAt,value
2022-08-27T00:04:03.058Z,10.57
2022-08-27T00:09:05.823Z,11.38
2022-08-27T00:14:08.102Z,10.85
2022-08-27T00:19:10.949Z,7.75
2022-08-27T00:24:13.078Z,7.80
2022-08-27T00:29:14.947Z,6.05
2022-08-27T00:34:16.830Z,4.35
2022-08-27T00:39:19.252Z,8.18
2022-08-27T00:44:21.429Z,6.60
2022-08-27T00:49:32.440Z,9.30
2022-08-27T00:54:34.825Z,8.35
2022-08-27T00:59:36.898Z,5.97
2022-08-27T01:04:41.531Z,7.15
2022-08-27T01:09:45.844Z,8.02
2022-08-27T01:14:48.121Z,11.02
2022-08-27T01:19:52.428Z,6.88
2022-08-27T01:24:58.438Z,6.20
2022-08-27T01:30:01.091Z,8.55
2022-08-27T01:35:06.629Z,7.60
2022-08-27T01:40:09.501Z,7.82
2022-08-27T01:45:30.297Z,11.15
2022-08-27T01:55:39.064Z,6.00
2022-08-27T02:00:46.422Z,7.50
2022-08-27T02:05:48.713Z,4.28
2022-08-27T02:10:51.045Z,7.65
2022-08-27T02:15:53.557Z,8.50
2022-08-27T02:20:55.461Z,8.27
2022-08-27T02:25:57.364Z,11.38
2022-08-27T02:30:59.289Z,6.05
2022-08-27T02:36:01.367Z,7.50
2022-08-27T02:41:04.376Z,5.57
2022-08-27T02:46:06.476Z,7.68
2022-08-27T02:51:08.982Z,11.02
2022-08-27T02:56:10.988Z,6.70
2022-08-27T03:01:13.873Z,10.70
2022-08-27T03:06:15.961Z,10.13
2022-08-27T03:11:17.892Z,8.48
2022-08-27T03:16:19.896Z,12.15
2022-08-27T03:21:24.879Z,7.68
2022-08-27T03:26:27.223Z,12.15
2022-08-27T03:31:29.405Z,12.30
2022-08-27T03:36:31.765Z,19.73
2022-08-27T03:41:40.025Z,19.10
2022-08-27T03:46:55.577Z,20.02
2022-08-27T03:51:57.566Z,22.88
2022-08-27T03:56:59.426Z,20.95
2022-08-27T04:02:01.916Z,22.65
2022-08-27T04:07:04.217Z,24.15
2022-08-27T04:12:06.259Z,25.05
2022-08-27T04:17:08.178Z,26.75
2022-08-27T04:22:10.052Z,24.15
2022-08-27T04:27:14.511Z,34.00
2022-08-27T04:32:16.399Z,24.23
2022-08-27T04:37:21.477Z,29.45
2022-08-27T04:42:25.355Z,24.15
2022-08-27T04:47:27.505Z,18.45
2022-08-27T04:52:29.672Z,17.92
2022-08-27T04:57:31.534Z,18.13
2022-08-27T05:02:33.401Z,16.65
2022-08-27T05:07:35.267Z,19.85
2022-08-27T05:12:37.190Z,10.73
2022-08-27T05:17:39.064Z,14.30
2022-08-27T05:22:40.928Z,13.68
2022-08-27T05:27:42.965Z,14.32
2022-08-27T05:32:44.981Z,15.18
2022-08-27T05:37:46.974Z,18.17
2022-08-27T05:42:50.181Z,23.00
2022-08-27T05:47:53.203Z,25.88
2022-08-27T05:52:55.145Z,33.65
2022-08-27T05:57:57.062Z,32.90
2022-08-27T06:02:59.032Z,28.88
2022-08-27T06:08:00.985Z,29.10
2022-08-27T06:13:04.048Z,28.42
2022-08-27T06:18:06.424Z,25.60
2022-08-27T06:23:08.460Z,19.23
2022-08-27T06:28:10.719Z,18.50
2022-08-27T06:33:12.923Z,19.73
2022-08-27T06:38:14.961Z,16.33
2022-08-27T06:43:16.970Z,19.02
2022-08-27T06:48:19.340Z,14.07
2022-08-27T06:53:24.513Z,18.20
2022-08-27T06:58:26.769Z,17.55
2022-08-27T07:03:28.740Z,14.65
2022-08-27T07:08:30.651Z,17.25
2022-08-27T07:13:32.547Z,17.85
2022-08-27T07:18:34.746Z,15.13
2022-08-27T07:23:38.714Z,15.75
2022-08-27T07:28:42.614Z,15.43
2022-08-27T07:33:52.181Z,18.95
2022-08-27T07:39:01.091Z,12.90
2022-08-27T07:44:26.050Z,13.55
2022-08-27T07:49:31.611Z,13.35
2022-08-27T07:54:33.501Z,18.00
2022-08-27T07:59:35.349Z,14.52
2022-08-27T08:04:37.255Z,19.23
2022-08-27T08:09:39.161Z,12.75
2022-08-27T08:14:41.204Z,12.32
2022-08-27T08:19:53.483Z,10.77
2022-08-27T08:25:05.692Z,10.73
2022-08-27T08:30:09.069Z,10.25
2022-08-27T08:35:11.387Z,14.82
2022-08-27T08:40:43.257Z,12.90
2022-08-27T08:45:46.129Z,13.57
2022-08-27T08:51:26.381Z,11.05
2022-08-27T08:57:06.890Z,15.45
2022-08-27T09:02:13.593Z,12.70
2022-08-27T09:07:35.018Z,9.95
2022-08-27T09:12:38.687Z,13.05
2022-08-27T09:17:42.218Z,11.85
2022-08-27T09:23:02.191Z,13.13
2022-08-27T09:28:47.608Z,9.83
2022-08-27T09:33:56.831Z,13.13
2022-08-27T09:39:04.203Z,12.07
2022-08-27T09:44:12.263Z,11.18
2022-08-27T09:49:16.416Z,9.88
2022-08-27T09:54:48.379Z,10.55
2022-08-27T09:59:54.409Z,8.27
2022-08-27T10:05:02.153Z,9.52
2022-08-27T10:10:21.668Z,17.83
2022-08-27T10:15:27.340Z,9.98
2022-08-27T10:21:05.957Z,13.57
2022-08-27T10:26:17.419Z,13.13
2022-08-27T10:31:32.913Z,14.03
2022-08-27T10:36:47.209Z,16.42
2022-08-27T10:42:06.117Z,10.43
2022-08-27T10:47:23.688Z,10.70
2022-08-27T10:52:51.532Z,12.02
2022-08-27T10:58:10.793Z,10.68
2022-08-27T11:03:22.464Z,10.75
2022-08-27T11:08:35.178Z,7.15
2022-08-27T11:13:41.495Z,8.98
2022-08-27T11:19:10.508Z,6.10
2022-08-27T11:24:35.864Z,6.18
2022-08-27T11:29:52.217Z,8.77
2022-08-27T11:35:09.668Z,9.45
2022-08-27T11:40:27.460Z,7.30
2022-08-27T11:45:38.775Z,7.63
2022-08-27T11:50:40.958Z,11.50
2022-08-27T11:55:43.170Z,9.48
2022-08-27T12:00:47.219Z,11.55
2022-08-27T12:05:55.171Z,9.77
2022-08-27T12:11:25.180Z,8.82
2022-08-27T12:16:57.310Z,11.40
2022-08-27T12:22:26.251Z,7.22
2022-08-27T12:27:38.418Z,13.68
2022-08-27T12:32:45.052Z,9.27
2022-08-27T12:37:57.831Z,9.90
2022-08-27T12:43:11.452Z,11.85
2022-08-27T12:48:14.797Z,9.88
2022-08-27T12:53:32.456Z,11.77
2022-08-27T12:58:48.677Z,12.15
2022-08-27T13:03:54.427Z,12.02
2022-08-27T13:08:59.624Z,14.25
2022-08-27T13:14:11.541Z,13.43
2022-08-27T13:19:22.975Z,13.30
2022-08-27T13:24:34.496Z,8.57
2022-08-27T13:29:39.243Z,10.52
2022-08-27T13:34:41.970Z,14.05
2022-08-27T13:39:44.181Z,15.82
2022-08-27T13:44:48.417Z,15.38
2022-08-27T13:49:52.017Z,15.20
2022-08-27T13:55:08.247Z,10.77
2022-08-27T14:00:23.590Z,8.68
2022-08-27T14:05:25.700Z,12.75
2022-08-27T14:10:41.066Z,14.40
2022-08-27T14:15:47.176Z,12.73
2022-08-27T14:20:49.437Z,16.63
2022-08-27T14:25:53.438Z,16.63
2022-08-27T14:30:55.393Z,13.48
2022-08-27T14:35:57.617Z,18.00
2022-08-27T14:41:00.209Z,19.88
2022-08-27T14:46:03.182Z,18.15
2022-08-27T14:51:12.543Z,17.08
2022-08-27T14:56:14.557Z,19.45
2022-08-27T15:01:18.585Z,20.63
2022-08-27T15:06:26.481Z,16.60
2022-08-27T15:11:34.159Z,23.98
2022-08-27T15:16:40.908Z,20.25
2022-08-27T15:21:47.390Z,18.70
2022-08-27T15:26:50.587Z,19.73
2022-08-27T15:31:53.131Z,17.80
2022-08-27T15:36:56.581Z,16.98
2022-08-27T15:42:06.955Z,18.92
2022-08-27T15:47:09.143Z,19.38
2022-08-27T15:52:16.068Z,18.10
2022-08-27T15:57:20.516Z,20.05
2022-08-27T16:02:24.363Z,19.98
2022-08-27T16:07:26.785Z,20.30
2022-08-27T16:12:29.045Z,21.98
2022-08-27T16:17:31.034Z,18.08
2022-08-27T16:22:34.914Z,26.48
2022-08-27T16:27:37.640Z,23.27
2022-08-27T16:32:40.531Z,21.35
2022-08-27T16:37:44.278Z,17.70
2022-08-27T16:42:50.461Z,23.13
2022-08-27T16:48:11.288Z,20.55
2022-08-27T16:53:15.732Z,22.15
2022-08-27T16:58:29.731Z,19.55
2022-08-27T17:03:37.755Z,18.98
2022-08-27T17:08:55.108Z,20.65
2022-08-27T17:14:00.301Z,16.73
2022-08-27T17:19:05.730Z,19.67
2022-08-27T17:24:12.417Z,19.48
2022-08-27T17:29:14.738Z,16.15
2022-08-27T17:34:21.984Z,17.00
2022-08-27T17:39:23.975Z,15.35
2022-08-27T17:44:36.087Z,17.27
2022-08-27T17:49:38.083Z,19.13
2022-08-27T17:54:46.194Z,19.80
2022-08-27T17:59:49.336Z,20.85
2022-08-27T18:04:52.267Z,22.05
2022-08-27T18:09:55.723Z,23.30
2022-08-27T18:15:15.327Z,34.40
2022-08-27T18:20:18.495Z,24.67
2022-08-27T18:25:24.806Z,22.65
2022-08-27T18:30:27.551Z,24.77
2022-08-27T18:35:32.194Z,21.80
2022-08-27T18:40:42.297Z,16.30
2022-08-27T18:45:44.716Z,18.45
2022-08-27T18:50:50.082Z,17.27
2022-08-27T18:55:53.259Z,18.27
2022-08-27T19:00:58.670Z,24.55
2022-08-27T19:06:01.716Z,15.18
2022-08-27T19:11:11.811Z,16.83
2022-08-27T19:16:22.194Z,15.25
2022-08-27T19:21:24.701Z,13.95
2022-08-27T19:26:26.700Z,15.40
2022-08-27T19:31:29.429Z,14.63
2022-08-27T19:36:34.698Z,16.00
2022-08-27T19:41:37.087Z,13.43
2022-08-27T19:46:39.676Z,10.63
2022-08-27T19:51:41.782Z,10.73
2022-08-27T19:56:44.957Z,11.90
2022-08-27T20:01:47.100Z,8.80
2022-08-27T20:06:49.018Z,9.40
2022-08-27T20:11:50.999Z,7.85
2022-08-27T20:16:53.131Z,10.80
2022-08-27T20:21:55.224Z,11.02
2022-08-27T20:26:58.148Z,7.70
2022-08-27T20:32:01.213Z,9.70
2022-08-27T20:37:04.338Z,10.10
2022-08-27T20:42:07.641Z,11.13
2022-08-27T20:47:11.109Z,11.15
2022-08-27T20:52:15.079Z,9.40
2022-08-27T20:57:17.104Z,11.48
2022-08-27T21:02:28.952Z,12.38
2022-08-27T21:07:30.881Z,8.70
2022-08-27T21:12:33.145Z,6.38
2022-08-27T21:17:35.493Z,4.88
2022-08-27T21:22:38.479Z,5.60
2022-08-27T21:27:41.173Z,3.60
2022-08-27T21:32:43.103Z,4.25
2022-08-27T21:37:44.946Z,4.05
2022-08-27T21:42:48.081Z,7.05
2022-08-27T21:47:51.933Z,3.30
2022-08-27T21:52:54.174Z,7.22
2022-08-27T21:57:56.063Z,4.05
2022-08-27T22:02:58.436Z,11.55
2022-08-27T22:08:00.483Z,7.72
2022-08-27T22:13:02.558Z,6.63
2022-08-27T22:18:05.995Z,5.28
2022-08-27T22:23:10.150Z,9.38
2022-08-27T22:28:13.395Z,4.43
2022-08-27T22:33:16.318Z,6.93
2022-08-27T22:38:18.251Z,5.40
2022-08-27T22:43:20.138Z,4.85
2022-08-27T22:48:22.068Z,5.40
2022-08-27T22:53:24.093Z,6.00
2022-08-27T22:58:26.336Z,6.70
2022-08-27T23:03:28.889Z,6.40
2022-08-27T23:08:31.985Z,6.82
2022-08-27T23:13:34.253Z,9.82
2022-08-27T23:18:36.841Z,9.35
2022-08-27T23:23:38.923Z,11.88
2022-08-27T23:28:41.001Z,14.25
2022-08-27T23:33:43.205Z,13.00
2022-08-27T23:38:46.080Z,8.68
2022-08-27T23:43:48.017Z,13.23
2022-08-27T23:48:49.882Z,8.77
2022-08-27T23:53:51.749Z,6.20
2022-08-27T23:58:53.726Z,6.22
